• Join FlightAware (Why Join?)
  • Login
  • US Flag 
08:19PM EST


 

Airport Tracker/Info


-or-


 

Live Flight TrackerFlight Track Log ✈ DAL3606 ✈ 24-Apr-2013 ✈ KIAD - KATL

Flight Track Log - Related Links

Times and Time Zones

All times are in EDT time to prevent confusion due to time zone crossing. See the DAL3606 flight status page for this flight to view local times or setup timezone preferences in your user account.

Time Position Orientation Groundspeed Altitude Reporting Facility
EDT Latitude Longitude Course Direction KTS MPH feet Rate Location/Type
12:02PM 38.8833 -77.5167 180° South 201 231 4,600  Level Potomac TRACON
12:03PM 38.8167 -77.5000 169° South 252 290 7,100 2,580 Climbing Potomac TRACON
12:04PM 38.7500 -77.5333 201° Southwest 263 303 9,800 2,040 Climbing Potomac TRACON
12:05PM 38.4959 -77.7395 230° Southwest  Level FlightAware Approximate
12:05PM 38.6833 -77.5833 210° Southwest 306 352 11,200  Level Potomac TRACON
12:06PM 38.4338 -77.8409 234° Southwest  Level FlightAware Approximate
12:06PM 38.5553 -77.6892 213° Southwest 359 413 13,800  Level Washington Center
12:07PM 38.4808 -77.7744 222° Southwest 365 420 16,100 1,920 Climbing Washington Center
12:08PM 38.4222 -77.8894 237° Southwest 373 429 17,700 1,560 Climbing Washington Center
12:09PM 38.3617 -78.0067 237° Southwest 386 444 19,300 1,620 Climbing Washington Center
12:10PM 38.2989 -78.1236 236° Southwest 396 456 21,000 1,680 Climbing Washington Center
12:11PM 38.2378 -78.2458 238° Southwest 408 470 22,700 1,500 Climbing Washington Center
12:12PM 38.1703 -78.3675 235° Southwest 414 476 24,000 1,200 Climbing Washington Center
12:13PM 38.1111 -78.4972 240° Southwest 424 488 25,200 1,260 Climbing Washington Center
12:14PM 38.0681 -78.6328 248° West 424 488 26,600 1,500 Climbing Washington Center
12:15PM 38.0228 -78.7681 247° West 424 488 28,300 1,380 Climbing Washington Center
12:16PM 37.9753 -78.9031 246° West 424 488 29,400 840 Climbing Washington Center
12:17PM 37.9278 -79.0406 246° West 424 488 30,000 300 Climbing Washington Center
12:18PM 37.8528 -79.1792 236° Southwest 434 499 30,000  Level Washington Center
12:19PM 37.7700 -79.2933 227° Southwest 439 505 30,100 900 Climbing Washington Center
12:20PM 37.6872 -79.4047 227° Southwest 444 511 31,800 900 Climbing Washington Center
12:21PM 37.6064 -79.5189 228° Southwest 438 504 32,000 60 Climbing Washington Center
12:22PM 37.5233 -79.6297 227° Southwest 438 504 32,000  Level Washington Center
12:23PM 37.4425 -79.7406 227° Southwest 438 504 32,000  Level Washington Center
12:24PM 37.3592 -79.8561 228° Southwest 444 511 32,000  Level Washington Center
12:27PM 37.1833 -80.0897 227° Southwest 430 495 32,000  Level Atlanta Center
12:28PM 37.1075 -80.1922 227° Southwest 435 501 32,000  Level Atlanta Center
12:29PM 37.0272 -80.2975 226° Southwest 430 495 32,000  Level Atlanta Center
12:30PM 36.9453 -80.4106 228° Southwest 435 501 32,000  Level Atlanta Center
12:31PM 36.8628 -80.5208 227° Southwest 435 501 32,000  Level Atlanta Center
12:32PM 36.7744 -80.6361 226° Southwest 435 501 32,000  Level Atlanta Center
12:33PM 36.6961 -80.7431 228° Southwest 430 495 32,000  Level Atlanta Center
12:34PM 36.6133 -80.8525 227° Southwest 429 494 32,000  Level Atlanta Center
12:35PM 36.5347 -80.9589 227° Southwest 429 494 32,000  Level Atlanta Center
12:36PM 36.4519 -81.0653 226° Southwest 434 499 32,000  Level Atlanta Center
12:37PM 36.3711 -81.1742 227° Southwest 434 499 32,000  Level Atlanta Center
12:38PM 36.2900 -81.2825 227° Southwest 434 499 32,000  Level Atlanta Center
12:39PM 36.2089 -81.3858 226° Southwest 426 490 32,000  Level Atlanta Center
12:40PM 36.1239 -81.4989 227° Southwest 432 497 32,000  Level Atlanta Center
12:41PM 36.0406 -81.6069 226° Southwest 437 503 32,000  Level Atlanta Center
12:42PM 35.9569 -81.7144 226° Southwest 437 503 32,000  Level Atlanta Center
12:43PM 35.8736 -81.8247 227° Southwest 435 501 32,000  Level Atlanta Center
12:44PM 35.7878 -81.9319 225° Southwest 440 506 32,000  Level Atlanta Center
12:45PM 35.7122 -82.0286 226° Southwest 435 501 32,000  Level Atlanta Center
12:46PM 35.6283 -82.1378 227° Southwest 433 498 32,000  Level Atlanta Center
12:47PM 35.5444 -82.2444 226° Southwest 433 498 32,000 -120 Level Atlanta Center
12:48PM 35.4583 -82.3458 224° Southwest 433 498 31,800 -720 Descending Atlanta Center
12:49PM 35.3719 -82.4417 222° Southwest 441 507 30,600 -1,140 Descending Atlanta Center
12:50PM 35.2856 -82.5375 222° Southwest 430 495 29,600 -1,080 Descending Atlanta Center
12:51PM 35.1989 -82.6281 221° Southwest 430 495 28,500 -1,140 Descending Atlanta Center
12:52PM 35.1103 -82.7286 223° Southwest 430 495 27,400 -1,200 Descending Atlanta Center
12:53PM 35.0156 -82.8342 222° Southwest 430 495 26,100 -1,200 Descending Atlanta Center
12:54PM 34.9328 -82.9267 223° Southwest 425 489 25,000 -1,080 Descending Atlanta Center
12:55PM 34.8481 -83.0189 222° Southwest 411 473 24,000 -540 Descending Atlanta Center
12:56PM 34.7758 -83.0981 222° Southwest 405 466 24,000  Level Atlanta Center
12:57PM 34.6950 -83.1850 221° Southwest 400 460 24,000  Level Atlanta Center
12:58PM 34.6122 -83.2767 222° Southwest 400 460 24,000 -900 Level Atlanta Center
12:59PM 34.5292 -83.3656 221° Southwest 406 467 22,300 -1,680 Descending Atlanta Center
01:00PM 34.4606 -83.4392 222° Southwest 391 450 20,700 -1,920 Descending Atlanta Center
01:01PM 34.3817 -83.5278 223° Southwest 365 420 18,500 -1,980 Descending Atlanta Center
01:02PM 34.3028 -83.6089 220° Southwest 357 411 16,800 -1,800 Descending Atlanta Center
01:03PM 34.2319 -83.6869 222° Southwest 345 397 15,000 -1,800 Descending Atlanta Center
01:04PM 34.1656 -83.7603 222° Southwest 339 390 13,200 -1,500 Descending Atlanta Center
01:05PM 34.0989 -83.8281 220° Southwest 333 383 12,000 -1,140 Descending Atlanta Center
01:06PM 34.0447 -83.8908 224° Southwest 297 342 11,000 -1,200 Descending Atlanta Center
01:07PM 33.9925 -83.9461 221° Southwest 265 305 9,600 -1,020 Descending Atlanta Center
01:08PM 33.9333 -84.0000 217° Southwest 216 249 9,000 -1,020 Descending Atlanta TRACON
01:09PM 33.9000 -84.0500 231° Southwest 201 231 7,600 -1,380 Descending Atlanta TRACON
01:10PM 33.8589 -84.0789 210° Southwest 211 243 6,400 -840 Descending Atlanta Center
01:11PM 33.7983 -84.0714 174° South 218 251 6,000 -360 Descending Atlanta Center
01:12PM 33.7378 -84.0639 174° South 218 251 5,700 -660 Descending Atlanta Center
01:14PM 33.6500 -84.1167 207° Southwest 186 214 4,000 -540 Descending Atlanta TRACON
01:15PM 33.6500 -84.1833 270° West 187 215 4,100 -120 Climbing Atlanta TRACON
01:16PM 33.6500 -84.2500 270° West 190 219 3,800 -300 Descending Atlanta TRACON